sensor_id;sensor_type;location;lat;lon;timestamp;P1;durP1;ratioP1;P2;durP2;ratioP2
9789;SDS011;4934;50.852;8.098;2023-03-20T00:00:04;10.02;;;5.35;;
9789;SDS011;4934;50.852;8.098;2023-03-20T00:02:34;9.60;;;5.40;;
9789;SDS011;4934;50.852;8.098;2023-03-20T00:05:08;8.83;;;5.43;;
9789;SDS011;4934;50.852;8.098;2023-03-20T00:07:43;13.82;;;6.60;;
9789;SDS011;4934;50.852;8.098;2023-03-20T00:10:09;12.68;;;6.55;;
9789;SDS011;4934;50.852;8.098;2023-03-20T00:12:35;15.23;;;7.53;;
9789;SDS011;4934;50.852;8.098;2023-03-20T00:15:02;13.32;;;7.40;;
9789;SDS011;4934;50.852;8.098;2023-03-20T00:17:30;14.63;;;7.10;;
9789;SDS011;4934;50.852;8.098;2023-03-20T00:19:56;12.35;;;7.07;;
9789;SDS011;4934;50.852;8.098;2023-03-20T00:22:21;17.02;;;8.45;;
9789;SDS011;4934;50.852;8.098;2023-03-20T00:24:47;52.75;;;20.33;;
9789;SDS011;4934;50.852;8.098;2023-03-20T00:27:13;39.13;;;16.15;;
9789;SDS011;4934;50.852;8.098;2023-03-20T00:29:40;30.42;;;14.00;;
9789;SDS011;4934;50.852;8.098;2023-03-20T00:32:13;46.40;;;17.45;;
9789;SDS011;4934;50.852;8.098;2023-03-20T00:34:39;40.85;;;16.90;;
9789;SDS011;4934;50.852;8.098;2023-03-20T00:37:05;38.70;;;16.30;;
9789;SDS011;4934;50.852;8.098;2023-03-20T00:39:31;42.83;;;18.65;;
9789;SDS011;4934;50.852;8.098;2023-03-20T00:42:01;41.45;;;17.70;;
9789;SDS011;4934;50.852;8.098;2023-03-20T00:44:34;37.83;;;17.52;;
9789;SDS011;4934;50.852;8.098;2023-03-20T00:47:11;40.45;;;18.50;;
9789;SDS011;4934;50.852;8.098;2023-03-20T00:49:45;44.38;;;17.98;;
9789;SDS011;4934;50.852;8.098;2023-03-20T00:52:12;48.13;;;19.67;;
9789;SDS011;4934;50.852;8.098;2023-03-20T00:54:38;59.88;;;23.48;;
9789;SDS011;4934;50.852;8.098;2023-03-20T00:57:23;61.05;;;24.02;;
9789;SDS011;4934;50.852;8.098;2023-03-20T00:59:58;62.83;;;24.90;;
9789;SDS011;4934;50.852;8.098;2023-03-20T01:02:29;64.18;;;23.05;;
9789;SDS011;4934;50.852;8.098;2023-03-20T01:04:55;62.38;;;26.35;;
9789;SDS011;4934;50.852;8.098;2023-03-20T01:07:21;64.95;;;25.70;;
9789;SDS011;4934;50.852;8.098;2023-03-20T01:09:47;67.30;;;25.67;;
9789;SDS011;4934;50.852;8.098;2023-03-20T01:12:12;64.28;;;25.00;;
9789;SDS011;4934;50.852;8.098;2023-03-20T01:14:39;85.88;;;33.08;;
9789;SDS011;4934;50.852;8.098;2023-03-20T01:17:08;66.75;;;27.58;;
9789;SDS011;4934;50.852;8.098;2023-03-20T01:19:41;73.47;;;27.00;;
9789;SDS011;4934;50.852;8.098;2023-03-20T01:22:07;66.63;;;25.55;;
9789;SDS011;4934;50.852;8.098;2023-03-20T01:24:33;76.05;;;28.13;;
9789;SDS011;4934;50.852;8.098;2023-03-20T01:26:59;69.93;;;28.10;;
9789;SDS011;4934;50.852;8.098;2023-03-20T01:31:54;71.68;;;28.08;;
9789;SDS011;4934;50.852;8.098;2023-03-20T01:34:20;71.72;;;27.42;;
9789;SDS011;4934;50.852;8.098;2023-03-20T01:36:53;81.35;;;29.92;;
9789;SDS011;4934;50.852;8.098;2023-03-20T01:39:21;78.20;;;28.42;;
9789;SDS011;4934;50.852;8.098;2023-03-20T01:41:52;86.43;;;29.95;;
9789;SDS011;4934;50.852;8.098;2023-03-20T01:44:22;94.07;;;31.80;;
9789;SDS011;4934;50.852;8.098;2023-03-20T01:46:51;87.53;;;30.10;;
9789;SDS011;4934;50.852;8.098;2023-03-20T01:51:43;78.50;;;28.65;;
9789;SDS011;4934;50.852;8.098;2023-03-20T01:54:10;75.47;;;27.95;;
9789;SDS011;4934;50.852;8.098;2023-03-20T01:56:45;79.05;;;28.45;;
9789;SDS011;4934;50.852;8.098;2023-03-20T01:59:27;74.10;;;26.58;;
9789;SDS011;4934;50.852;8.098;2023-03-20T02:01:57;76.68;;;28.75;;
9789;SDS011;4934;50.852;8.098;2023-03-20T02:04:25;83.55;;;28.70;;
9789;SDS011;4934;50.852;8.098;2023-03-20T02:06:57;82.25;;;27.80;;
9789;SDS011;4934;50.852;8.098;2023-03-20T02:09:24;78.32;;;28.55;;
9789;SDS011;4934;50.852;8.098;2023-03-20T02:11:49;83.68;;;29.17;;
9789;SDS011;4934;50.852;8.098;2023-03-20T02:14:16;90.45;;;32.05;;
9789;SDS011;4934;50.852;8.098;2023-03-20T02:16:43;105.68;;;34.60;;
9789;SDS011;4934;50.852;8.098;2023-03-20T02:19:10;101.65;;;36.17;;
9789;SDS011;4934;50.852;8.098;2023-03-20T02:44:03;78.32;;;24.88;;
9789;SDS011;4934;50.852;8.098;2023-03-20T02:46:56;77.25;;;24.10;;
9789;SDS011;4934;50.852;8.098;2023-03-20T02:50:34;63.80;;;23.08;;
9789;SDS011;4934;50.852;8.098;2023-03-20T02:58:09;75.72;;;24.13;;
9789;SDS011;4934;50.852;8.098;2023-03-20T03:01:20;66.35;;;22.98;;
9789;SDS011;4934;50.852;8.098;2023-03-20T03:03:53;75.63;;;23.92;;
9789;SDS011;4934;50.852;8.098;2023-03-20T03:06:29;66.25;;;22.20;;
9789;SDS011;4934;50.852;8.098;2023-03-20T03:09:10;70.67;;;22.90;;
9789;SDS011;4934;50.852;8.098;2023-03-20T03:11:44;60.47;;;19.67;;
9789;SDS011;4934;50.852;8.098;2023-03-20T03:17:21;61.10;;;20.00;;
9789;SDS011;4934;50.852;8.098;2023-03-20T03:19:50;55.75;;;20.17;;
9789;SDS011;4934;50.852;8.098;2023-03-20T03:22:19;71.03;;;19.75;;
9789;SDS011;4934;50.852;8.098;2023-03-20T03:24:52;64.18;;;19.33;;
9789;SDS011;4934;50.852;8.098;2023-03-20T03:29:59;58.50;;;18.95;;
9789;SDS011;4934;50.852;8.098;2023-03-20T03:32:33;51.10;;;16.95;;
9789;SDS011;4934;50.852;8.098;2023-03-20T03:35:01;47.78;;;17.13;;
9789;SDS011;4934;50.852;8.098;2023-03-20T03:37:34;55.25;;;16.55;;
9789;SDS011;4934;50.852;8.098;2023-03-20T03:40:20;53.65;;;17.83;;
9789;SDS011;4934;50.852;8.098;2023-03-20T03:45:25;50.85;;;18.27;;
9789;SDS011;4934;50.852;8.098;2023-03-20T03:48:01;49.22;;;16.42;;
9789;SDS011;4934;50.852;8.098;2023-03-20T03:50:45;42.03;;;15.50;;
9789;SDS011;4934;50.852;8.098;2023-03-20T03:53:17;47.90;;;16.38;;
9789;SDS011;4934;50.852;8.098;2023-03-20T03:55:49;48.90;;;16.65;;
9789;SDS011;4934;50.852;8.098;2023-03-20T03:58:19;53.15;;;18.15;;
9789;SDS011;4934;50.852;8.098;2023-03-20T04:00:58;51.97;;;18.38;;
9789;SDS011;4934;50.852;8.098;2023-03-20T04:03:30;51.63;;;17.67;;
9789;SDS011;4934;50.852;8.098;2023-03-20T04:05:58;52.15;;;17.92;;
9789;SDS011;4934;50.852;8.098;2023-03-20T04:08:26;46.50;;;17.75;;
9789;SDS011;4934;50.852;8.098;2023-03-20T04:10:51;53.50;;;19.35;;
9789;SDS011;4934;50.852;8.098;2023-03-20T04:13:17;52.17;;;18.98;;
9789;SDS011;4934;50.852;8.098;2023-03-20T04:15:42;56.60;;;19.92;;
9789;SDS011;4934;50.852;8.098;2023-03-20T04:18:15;61.63;;;19.58;;
9789;SDS011;4934;50.852;8.098;2023-03-20T04:20:42;60.22;;;19.83;;
9789;SDS011;4934;50.852;8.098;2023-03-20T04:23:08;54.60;;;21.52;;
9789;SDS011;4934;50.852;8.098;2023-03-20T04:25:34;64.45;;;21.00;;
9789;SDS011;4934;50.852;8.098;2023-03-20T04:28:00;59.45;;;20.65;;
9789;SDS011;4934;50.852;8.098;2023-03-20T04:30:25;65.18;;;21.75;;
9789;SDS011;4934;50.852;8.098;2023-03-20T04:32:51;65.50;;;22.75;;
9789;SDS011;4934;50.852;8.098;2023-03-20T04:35:17;60.90;;;21.58;;
9789;SDS011;4934;50.852;8.098;2023-03-20T04:37:43;57.97;;;20.70;;
9789;SDS011;4934;50.852;8.098;2023-03-20T04:40:08;57.88;;;20.45;;
9789;SDS011;4934;50.852;8.098;2023-03-20T04:42:34;53.88;;;19.20;;
9789;SDS011;4934;50.852;8.098;2023-03-20T04:45:00;57.47;;;21.90;;
9789;SDS011;4934;50.852;8.098;2023-03-20T04:47:26;55.13;;;19.42;;
9789;SDS011;4934;50.852;8.098;2023-03-20T04:49:51;66.25;;;22.33;;
9789;SDS011;4934;50.852;8.098;2023-03-20T04:52:17;72.00;;;22.23;;
9789;SDS011;4934;50.852;8.098;2023-03-20T04:54:42;63.58;;;23.38;;
9789;SDS011;4934;50.852;8.098;2023-03-20T04:57:08;56.90;;;21.02;;
9789;SDS011;4934;50.852;8.098;2023-03-20T04:59:33;58.40;;;20.35;;
9789;SDS011;4934;50.852;8.098;2023-03-20T05:01:59;57.47;;;19.27;;
9789;SDS011;4934;50.852;8.098;2023-03-20T05:04:25;59.83;;;21.27;;
9789;SDS011;4934;50.852;8.098;2023-03-20T05:06:51;56.97;;;20.48;;
9789;SDS011;4934;50.852;8.098;2023-03-20T05:09:17;64.13;;;22.95;;
9789;SDS011;4934;50.852;8.098;2023-03-20T05:11:43;67.15;;;22.33;;
9789;SDS011;4934;50.852;8.098;2023-03-20T05:14:08;57.20;;;20.58;;
9789;SDS011;4934;50.852;8.098;2023-03-20T05:16:35;52.40;;;20.38;;
9789;SDS011;4934;50.852;8.098;2023-03-20T05:19:02;56.67;;;20.95;;
9789;SDS011;4934;50.852;8.098;2023-03-20T05:21:27;54.65;;;19.95;;
9789;SDS011;4934;50.852;8.098;2023-03-20T05:23:53;54.30;;;18.65;;
9789;SDS011;4934;50.852;8.098;2023-03-20T05:26:18;50.97;;;18.50;;
9789;SDS011;4934;50.852;8.098;2023-03-20T05:28:44;53.80;;;20.80;;
9789;SDS011;4934;50.852;8.098;2023-03-20T05:31:10;56.38;;;20.55;;
9789;SDS011;4934;50.852;8.098;2023-03-20T05:33:36;49.10;;;17.85;;
9789;SDS011;4934;50.852;8.098;2023-03-20T05:36:03;61.45;;;20.98;;
9789;SDS011;4934;50.852;8.098;2023-03-20T05:38:29;58.38;;;21.38;;
9789;SDS011;4934;50.852;8.098;2023-03-20T05:40:58;56.35;;;20.90;;
9789;SDS011;4934;50.852;8.098;2023-03-20T05:43:25;59.67;;;21.90;;
9789;SDS011;4934;50.852;8.098;2023-03-20T05:45:51;64.32;;;21.83;;
9789;SDS011;4934;50.852;8.098;2023-03-20T05:48:17;70.43;;;22.30;;
9789;SDS011;4934;50.852;8.098;2023-03-20T05:50:42;56.00;;;19.83;;
9789;SDS011;4934;50.852;8.098;2023-03-20T05:53:08;66.88;;;21.08;;
9789;SDS011;4934;50.852;8.098;2023-03-20T05:55:34;75.82;;;23.55;;
9789;SDS011;4934;50.852;8.098;2023-03-20T05:58:00;65.55;;;21.52;;
9789;SDS011;4934;50.852;8.098;2023-03-20T06:00:25;65.85;;;22.52;;
9789;SDS011;4934;50.852;8.098;2023-03-20T06:02:51;59.20;;;21.15;;
9789;SDS011;4934;50.852;8.098;2023-03-20T06:05:18;62.00;;;21.42;;
9789;SDS011;4934;50.852;8.098;2023-03-20T06:07:43;66.00;;;22.20;;
9789;SDS011;4934;50.852;8.098;2023-03-20T06:10:09;62.97;;;22.02;;
9789;SDS011;4934;50.852;8.098;2023-03-20T06:12:35;65.55;;;22.88;;
9789;SDS011;4934;50.852;8.098;2023-03-20T06:15:01;62.08;;;22.92;;
9789;SDS011;4934;50.852;8.098;2023-03-20T06:17:27;65.22;;;21.60;;
9789;SDS011;4934;50.852;8.098;2023-03-20T06:19:52;68.88;;;23.08;;
9789;SDS011;4934;50.852;8.098;2023-03-20T06:22:18;65.85;;;22.10;;
9789;SDS011;4934;50.852;8.098;2023-03-20T06:24:44;73.57;;;23.92;;
9789;SDS011;4934;50.852;8.098;2023-03-20T06:27:10;70.60;;;25.60;;
9789;SDS011;4934;50.852;8.098;2023-03-20T06:29:35;64.97;;;22.60;;
9789;SDS011;4934;50.852;8.098;2023-03-20T06:32:01;67.25;;;25.73;;
9789;SDS011;4934;50.852;8.098;2023-03-20T06:34:27;76.75;;;24.77;;
9789;SDS011;4934;50.852;8.098;2023-03-20T06:36:54;78.47;;;25.38;;
9789;SDS011;4934;50.852;8.098;2023-03-20T06:39:20;80.13;;;25.25;;
9789;SDS011;4934;50.852;8.098;2023-03-20T06:41:45;72.10;;;23.05;;
9789;SDS011;4934;50.852;8.098;2023-03-20T06:44:11;63.05;;;20.48;;
9789;SDS011;4934;50.852;8.098;2023-03-20T06:46:37;72.07;;;23.52;;
9789;SDS011;4934;50.852;8.098;2023-03-20T06:49:02;63.85;;;22.27;;
9789;SDS011;4934;50.852;8.098;2023-03-20T06:51:28;68.53;;;21.55;;
9789;SDS011;4934;50.852;8.098;2023-03-20T06:53:53;75.03;;;24.42;;
9789;SDS011;4934;50.852;8.098;2023-03-20T06:56:19;60.78;;;22.77;;
9789;SDS011;4934;50.852;8.098;2023-03-20T06:58:45;58.00;;;21.77;;
9789;SDS011;4934;50.852;8.098;2023-03-20T07:01:11;56.97;;;22.65;;
9789;SDS011;4934;50.852;8.098;2023-03-20T07:03:40;55.78;;;21.80;;
9789;SDS011;4934;50.852;8.098;2023-03-20T07:06:06;51.67;;;18.48;;
9789;SDS011;4934;50.852;8.098;2023-03-20T07:08:33;53.92;;;18.92;;
9789;SDS011;4934;50.852;8.098;2023-03-20T07:10:59;51.58;;;19.52;;
9789;SDS011;4934;50.852;8.098;2023-03-20T07:13:25;58.35;;;21.40;;
9789;SDS011;4934;50.852;8.098;2023-03-20T07:15:52;53.45;;;20.27;;
9789;SDS011;4934;50.852;8.098;2023-03-20T07:18:18;57.28;;;20.05;;
9789;SDS011;4934;50.852;8.098;2023-03-20T07:20:44;50.88;;;20.05;;
9789;SDS011;4934;50.852;8.098;2023-03-20T07:23:09;58.08;;;20.48;;
9789;SDS011;4934;50.852;8.098;2023-03-20T07:25:35;52.17;;;20.45;;
9789;SDS011;4934;50.852;8.098;2023-03-20T07:28:03;55.22;;;21.25;;
9789;SDS011;4934;50.852;8.098;2023-03-20T07:30:30;58.83;;;20.85;;
9789;SDS011;4934;50.852;8.098;2023-03-20T07:32:56;55.17;;;19.33;;
9789;SDS011;4934;50.852;8.098;2023-03-20T07:35:22;57.97;;;22.05;;
9789;SDS011;4934;50.852;8.098;2023-03-20T07:37:48;54.92;;;21.40;;
9789;SDS011;4934;50.852;8.098;2023-03-20T07:40:14;55.35;;;19.42;;
9789;SDS011;4934;50.852;8.098;2023-03-20T07:42:40;54.58;;;19.50;;
9789;SDS011;4934;50.852;8.098;2023-03-20T07:45:07;58.70;;;21.63;;
9789;SDS011;4934;50.852;8.098;2023-03-20T07:47:33;59.20;;;22.67;;
9789;SDS011;4934;50.852;8.098;2023-03-20T07:49:59;53.97;;;20.45;;
9789;SDS011;4934;50.852;8.098;2023-03-20T07:52:25;53.95;;;20.08;;
9789;SDS011;4934;50.852;8.098;2023-03-20T07:54:50;50.63;;;20.40;;
9789;SDS011;4934;50.852;8.098;2023-03-20T07:57:16;52.75;;;19.17;;
9789;SDS011;4934;50.852;8.098;2023-03-20T07:59:42;50.53;;;19.60;;
9789;SDS011;4934;50.852;8.098;2023-03-20T08:02:11;57.60;;;21.85;;
9789;SDS011;4934;50.852;8.098;2023-03-20T08:04:40;56.40;;;20.17;;
9789;SDS011;4934;50.852;8.098;2023-03-20T08:07:06;55.58;;;20.95;;
9789;SDS011;4934;50.852;8.098;2023-03-20T08:09:31;59.72;;;19.13;;
9789;SDS011;4934;50.852;8.098;2023-03-20T08:11:57;56.97;;;20.20;;
9789;SDS011;4934;50.852;8.098;2023-03-20T08:14:23;57.92;;;20.45;;
9789;SDS011;4934;50.852;8.098;2023-03-20T08:16:48;57.78;;;20.85;;
9789;SDS011;4934;50.852;8.098;2023-03-20T08:19:14;57.78;;;20.05;;
9789;SDS011;4934;50.852;8.098;2023-03-20T08:21:40;50.25;;;18.90;;
9789;SDS011;4934;50.852;8.098;2023-03-20T08:24:06;42.83;;;17.65;;
9789;SDS011;4934;50.852;8.098;2023-03-20T08:26:32;43.22;;;17.08;;
9789;SDS011;4934;50.852;8.098;2023-03-20T08:28:58;42.60;;;16.83;;
9789;SDS011;4934;50.852;8.098;2023-03-20T08:31:24;42.47;;;15.95;;
9789;SDS011;4934;50.852;8.098;2023-03-20T08:33:49;46.35;;;17.20;;
9789;SDS011;4934;50.852;8.098;2023-03-20T08:36:16;39.83;;;14.63;;
9789;SDS011;4934;50.852;8.098;2023-03-20T08:38:44;33.60;;;14.60;;
9789;SDS011;4934;50.852;8.098;2023-03-20T08:41:11;38.42;;;15.63;;
9789;SDS011;4934;50.852;8.098;2023-03-20T08:43:37;34.45;;;13.63;;
9789;SDS011;4934;50.852;8.098;2023-03-20T08:46:03;31.70;;;13.35;;
9789;SDS011;4934;50.852;8.098;2023-03-20T08:48:29;41.25;;;14.43;;
9789;SDS011;4934;50.852;8.098;2023-03-20T08:50:54;34.60;;;14.57;;
9789;SDS011;4934;50.852;8.098;2023-03-20T08:53:20;33.47;;;14.00;;
9789;SDS011;4934;50.852;8.098;2023-03-20T08:55:54;29.27;;;13.98;;
9789;SDS011;4934;50.852;8.098;2023-03-20T08:58:20;34.13;;;13.82;;
9789;SDS011;4934;50.852;8.098;2023-03-20T09:00:47;35.05;;;14.80;;
9789;SDS011;4934;50.852;8.098;2023-03-20T09:03:13;42.47;;;15.18;;
9789;SDS011;4934;50.852;8.098;2023-03-20T09:05:45;38.28;;;15.52;;
9789;SDS011;4934;50.852;8.098;2023-03-20T09:08:11;35.70;;;14.07;;
9789;SDS011;4934;50.852;8.098;2023-03-20T09:10:37;37.58;;;15.07;;
9789;SDS011;4934;50.852;8.098;2023-03-20T09:13:04;36.92;;;14.75;;
9789;SDS011;4934;50.852;8.098;2023-03-20T09:15:30;38.03;;;15.52;;
9789;SDS011;4934;50.852;8.098;2023-03-20T09:17:56;41.33;;;16.15;;
9789;SDS011;4934;50.852;8.098;2023-03-20T09:20:22;33.90;;;14.43;;
9789;SDS011;4934;50.852;8.098;2023-03-20T09:31:13;35.38;;;12.30;;
9789;SDS011;4934;50.852;8.098;2023-03-20T09:33:38;32.25;;;11.80;;
9789;SDS011;4934;50.852;8.098;2023-03-20T09:36:04;27.98;;;11.38;;
9789;SDS011;4934;50.852;8.098;2023-03-20T09:38:32;26.80;;;9.95;;
9789;SDS011;4934;50.852;8.098;2023-03-20T09:40:58;27.75;;;10.82;;
9789;SDS011;4934;50.852;8.098;2023-03-20T09:51:54;26.02;;;9.75;;
9789;SDS011;4934;50.852;8.098;2023-03-20T09:54:39;21.45;;;9.77;;
9789;SDS011;4934;50.852;8.098;2023-03-20T09:57:14;26.00;;;10.85;;
9789;SDS011;4934;50.852;8.098;2023-03-20T09:59:45;26.48;;;10.10;;
9789;SDS011;4934;50.852;8.098;2023-03-20T10:02:17;24.42;;;10.45;;
9789;SDS011;4934;50.852;8.098;2023-03-20T10:04:59;28.30;;;11.40;;
9789;SDS011;4934;50.852;8.098;2023-03-20T10:13:06;22.30;;;9.73;;
9789;SDS011;4934;50.852;8.098;2023-03-20T10:16:08;21.98;;;8.60;;
9789;SDS011;4934;50.852;8.098;2023-03-20T10:18:43;22.83;;;9.95;;
9789;SDS011;4934;50.852;8.098;2023-03-20T10:37:59;20.85;;;9.38;;
9789;SDS011;4934;50.852;8.098;2023-03-20T10:40:36;21.75;;;8.93;;
9789;SDS011;4934;50.852;8.098;2023-03-20T10:43:11;18.13;;;8.25;;
9789;SDS011;4934;50.852;8.098;2023-03-20T10:45:48;37.45;;;8.90;;
9789;SDS011;4934;50.852;8.098;2023-03-20T10:52:54;20.48;;;9.23;;
9789;SDS011;4934;50.852;8.098;2023-03-20T11:03:48;15.27;;;7.15;;
9789;SDS011;4934;50.852;8.098;2023-03-20T11:06:21;15.45;;;7.57;;
9789;SDS011;4934;50.852;8.098;2023-03-20T11:08:57;15.70;;;6.93;;
9789;SDS011;4934;50.852;8.098;2023-03-20T11:11:36;15.38;;;6.90;;
9789;SDS011;4934;50.852;8.098;2023-03-20T11:14:09;13.18;;;6.38;;
9789;SDS011;4934;50.852;8.098;2023-03-20T11:16:42;15.10;;;7.07;;
9789;SDS011;4934;50.852;8.098;2023-03-20T11:19:13;14.02;;;6.10;;
9789;SDS011;4934;50.852;8.098;2023-03-20T11:21:48;12.18;;;5.00;;
9789;SDS011;4934;50.852;8.098;2023-03-20T11:24:22;12.40;;;5.20;;
9789;SDS011;4934;50.852;8.098;2023-03-20T11:26:48;8.77;;;4.53;;
9789;SDS011;4934;50.852;8.098;2023-03-20T11:29:23;11.55;;;5.07;;
9789;SDS011;4934;50.852;8.098;2023-03-20T11:31:53;9.80;;;4.22;;
9789;SDS011;4934;50.852;8.098;2023-03-20T11:34:23;8.00;;;4.13;;
9789;SDS011;4934;50.852;8.098;2023-03-20T11:39:25;10.25;;;4.82;;
9789;SDS011;4934;50.852;8.098;2023-03-20T11:41:54;10.52;;;4.90;;
9789;SDS011;4934;50.852;8.098;2023-03-20T11:44:22;15.07;;;6.67;;
9789;SDS011;4934;50.852;8.098;2023-03-20T11:47:03;14.70;;;6.18;;
9789;SDS011;4934;50.852;8.098;2023-03-20T11:49:49;14.68;;;4.80;;
9789;SDS011;4934;50.852;8.098;2023-03-20T11:52:20;10.25;;;5.25;;
9789;SDS011;4934;50.852;8.098;2023-03-20T11:54:56;10.98;;;4.82;;
9789;SDS011;4934;50.852;8.098;2023-03-20T11:59:59;13.27;;;5.53;;
9789;SDS011;4934;50.852;8.098;2023-03-20T12:02:31;9.13;;;4.85;;
9789;SDS011;4934;50.852;8.098;2023-03-20T12:05:02;10.65;;;5.53;;
9789;SDS011;4934;50.852;8.098;2023-03-20T12:08:16;11.48;;;5.05;;
9789;SDS011;4934;50.852;8.098;2023-03-20T12:13:55;11.35;;;5.85;;
9789;SDS011;4934;50.852;8.098;2023-03-20T12:16:24;13.90;;;4.55;;
9789;SDS011;4934;50.852;8.098;2023-03-20T12:19:18;11.85;;;4.85;;
9789;SDS011;4934;50.852;8.098;2023-03-20T12:21:58;10.23;;;4.00;;
9789;SDS011;4934;50.852;8.098;2023-03-20T12:25:06;12.65;;;5.50;;
9789;SDS011;4934;50.852;8.098;2023-03-20T12:27:35;13.05;;;5.05;;
9789;SDS011;4934;50.852;8.098;2023-03-20T12:30:17;8.20;;;4.38;;
9789;SDS011;4934;50.852;8.098;2023-03-20T12:36:14;9.50;;;4.28;;
9789;SDS011;4934;50.852;8.098;2023-03-20T12:39:17;13.27;;;4.47;;
9789;SDS011;4934;50.852;8.098;2023-03-20T12:42:37;8.85;;;4.75;;
9789;SDS011;4934;50.852;8.098;2023-03-20T12:45:52;8.45;;;3.83;;
9789;SDS011;4934;50.852;8.098;2023-03-20T12:51:17;11.77;;;4.10;;
9789;SDS011;4934;50.852;8.098;2023-03-20T12:53:54;8.77;;;3.97;;
9789;SDS011;4934;50.852;8.098;2023-03-20T13:05:30;5.82;;;2.78;;
9789;SDS011;4934;50.852;8.098;2023-03-20T13:08:18;8.32;;;2.65;;
9789;SDS011;4934;50.852;8.098;2023-03-20T13:20:30;8.60;;;3.65;;
9789;SDS011;4934;50.852;8.098;2023-03-20T13:23:29;8.38;;;3.30;;
9789;SDS011;4934;50.852;8.098;2023-03-20T13:26:20;4.80;;;2.28;;
9789;SDS011;4934;50.852;8.098;2023-03-20T13:29:02;5.25;;;2.85;;
9789;SDS011;4934;50.852;8.098;2023-03-20T13:37:16;7.70;;;3.20;;
9789;SDS011;4934;50.852;8.098;2023-03-20T13:42:24;6.20;;;3.63;;
9789;SDS011;4934;50.852;8.098;2023-03-20T13:45:07;7.95;;;4.05;;
9789;SDS011;4934;50.852;8.098;2023-03-20T13:48:02;7.05;;;3.50;;
9789;SDS011;4934;50.852;8.098;2023-03-20T13:53:27;9.98;;;3.85;;
9789;SDS011;4934;50.852;8.098;2023-03-20T13:56:02;10.40;;;3.97;;
9789;SDS011;4934;50.852;8.098;2023-03-20T13:58:40;8.27;;;4.60;;
9789;SDS011;4934;50.852;8.098;2023-03-20T14:01:55;8.35;;;4.05;;
9789;SDS011;4934;50.852;8.098;2023-03-20T14:04:27;9.85;;;4.00;;
9789;SDS011;4934;50.852;8.098;2023-03-20T14:06:55;12.68;;;4.28;;
9789;SDS011;4934;50.852;8.098;2023-03-20T14:09:23;8.20;;;4.20;;
9789;SDS011;4934;50.852;8.098;2023-03-20T14:11:54;12.88;;;5.15;;
9789;SDS011;4934;50.852;8.098;2023-03-20T14:14:31;14.57;;;5.05;;
9789;SDS011;4934;50.852;8.098;2023-03-20T14:17:18;9.48;;;4.28;;
9789;SDS011;4934;50.852;8.098;2023-03-20T14:19:46;10.75;;;4.95;;
9789;SDS011;4934;50.852;8.098;2023-03-20T14:22:20;8.38;;;4.53;;
9789;SDS011;4934;50.852;8.098;2023-03-20T14:27:28;9.82;;;4.90;;
9789;SDS011;4934;50.852;8.098;2023-03-20T14:29:54;12.38;;;4.85;;
9789;SDS011;4934;50.852;8.098;2023-03-20T14:32:21;13.18;;;4.40;;
9789;SDS011;4934;50.852;8.098;2023-03-20T14:40:39;9.57;;;5.15;;
9789;SDS011;4934;50.852;8.098;2023-03-20T14:43:24;10.70;;;3.97;;
9789;SDS011;4934;50.852;8.098;2023-03-20T14:49:22;10.77;;;4.60;;
9789;SDS011;4934;50.852;8.098;2023-03-20T14:52:01;9.13;;;4.20;;
9789;SDS011;4934;50.852;8.098;2023-03-20T14:54:50;6.78;;;3.42;;
9789;SDS011;4934;50.852;8.098;2023-03-20T14:57:18;11.32;;;4.10;;
9789;SDS011;4934;50.852;8.098;2023-03-20T14:59:56;9.60;;;3.65;;
9789;SDS011;4934;50.852;8.098;2023-03-20T15:02:26;10.48;;;4.53;;
9789;SDS011;4934;50.852;8.098;2023-03-20T15:04:56;8.90;;;3.85;;
9789;SDS011;4934;50.852;8.098;2023-03-20T15:07:29;9.63;;;3.28;;
9789;SDS011;4934;50.852;8.098;2023-03-20T15:09:58;8.65;;;3.70;;
9789;SDS011;4934;50.852;8.098;2023-03-20T15:12:28;9.43;;;3.40;;
9789;SDS011;4934;50.852;8.098;2023-03-20T15:14:59;6.57;;;3.45;;
9789;SDS011;4934;50.852;8.098;2023-03-20T15:17:36;10.43;;;4.80;;
9789;SDS011;4934;50.852;8.098;2023-03-20T15:20:05;10.88;;;5.57;;
9789;SDS011;4934;50.852;8.098;2023-03-20T15:22:34;11.48;;;5.43;;
9789;SDS011;4934;50.852;8.098;2023-03-20T15:25:14;13.35;;;6.40;;
9789;SDS011;4934;50.852;8.098;2023-03-20T15:27:41;11.27;;;5.00;;
9789;SDS011;4934;50.852;8.098;2023-03-20T15:30:08;12.00;;;5.28;;
9789;SDS011;4934;50.852;8.098;2023-03-20T15:32:37;11.43;;;6.15;;
9789;SDS011;4934;50.852;8.098;2023-03-20T15:35:06;10.57;;;4.57;;
9789;SDS011;4934;50.852;8.098;2023-03-20T15:37:32;8.55;;;3.63;;
9789;SDS011;4934;50.852;8.098;2023-03-20T15:39:58;7.93;;;4.07;;
9789;SDS011;4934;50.852;8.098;2023-03-20T15:42:36;10.13;;;3.72;;
9789;SDS011;4934;50.852;8.098;2023-03-20T15:45:09;10.48;;;3.55;;
9789;SDS011;4934;50.852;8.098;2023-03-20T15:47:46;8.70;;;4.22;;
9789;SDS011;4934;50.852;8.098;2023-03-20T15:50:12;6.43;;;3.28;;
9789;SDS011;4934;50.852;8.098;2023-03-20T15:52:41;5.85;;;3.35;;
9789;SDS011;4934;50.852;8.098;2023-03-20T15:55:10;8.48;;;3.72;;
9789;SDS011;4934;50.852;8.098;2023-03-20T15:57:42;12.38;;;4.90;;
9789;SDS011;4934;50.852;8.098;2023-03-20T16:00:16;10.82;;;5.18;;
9789;SDS011;4934;50.852;8.098;2023-03-20T16:02:47;7.47;;;3.78;;
9789;SDS011;4934;50.852;8.098;2023-03-20T16:05:14;9.05;;;3.50;;
9789;SDS011;4934;50.852;8.098;2023-03-20T16:07:41;16.52;;;5.20;;
9789;SDS011;4934;50.852;8.098;2023-03-20T16:10:18;10.98;;;4.63;;
9789;SDS011;4934;50.852;8.098;2023-03-20T16:15:16;11.00;;;4.10;;
9789;SDS011;4934;50.852;8.098;2023-03-20T16:17:43;14.32;;;4.95;;
9789;SDS011;4934;50.852;8.098;2023-03-20T16:20:13;8.82;;;3.50;;
9789;SDS011;4934;50.852;8.098;2023-03-20T16:22:40;11.00;;;4.50;;
9789;SDS011;4934;50.852;8.098;2023-03-20T16:25:11;15.13;;;4.85;;
9789;SDS011;4934;50.852;8.098;2023-03-20T16:27:39;7.68;;;4.38;;
9789;SDS011;4934;50.852;8.098;2023-03-20T16:30:16;10.55;;;3.97;;
9789;SDS011;4934;50.852;8.098;2023-03-20T16:32:46;9.63;;;3.95;;
9789;SDS011;4934;50.852;8.098;2023-03-20T16:35:19;6.90;;;3.83;;
9789;SDS011;4934;50.852;8.098;2023-03-20T16:37:57;10.68;;;3.88;;
9789;SDS011;4934;50.852;8.098;2023-03-20T16:42:56;10.02;;;4.47;;
9789;SDS011;4934;50.852;8.098;2023-03-20T16:45:36;5.93;;;3.10;;
9789;SDS011;4934;50.852;8.098;2023-03-20T16:50:34;13.85;;;5.43;;
9789;SDS011;4934;50.852;8.098;2023-03-20T16:53:09;9.35;;;5.03;;
9789;SDS011;4934;50.852;8.098;2023-03-20T16:55:36;7.45;;;2.72;;
9789;SDS011;4934;50.852;8.098;2023-03-20T16:58:08;8.07;;;3.20;;
9789;SDS011;4934;50.852;8.098;2023-03-20T17:00:42;10.25;;;3.47;;
9789;SDS011;4934;50.852;8.098;2023-03-20T17:03:19;12.45;;;3.35;;
9789;SDS011;4934;50.852;8.098;2023-03-20T17:08:27;4.82;;;2.60;;
9789;SDS011;4934;50.852;8.098;2023-03-20T17:11:16;5.82;;;3.03;;
9789;SDS011;4934;50.852;8.098;2023-03-20T17:13:54;11.45;;;3.65;;
9789;SDS011;4934;50.852;8.098;2023-03-20T17:16:20;8.23;;;3.10;;
9789;SDS011;4934;50.852;8.098;2023-03-20T17:19:09;8.63;;;2.80;;
9789;SDS011;4934;50.852;8.098;2023-03-20T17:21:37;25.92;;;11.73;;
9789;SDS011;4934;50.852;8.098;2023-03-20T17:24:03;22.35;;;10.05;;
9789;SDS011;4934;50.852;8.098;2023-03-20T17:26:29;10.65;;;4.50;;
9789;SDS011;4934;50.852;8.098;2023-03-20T17:28:55;6.65;;;3.40;;
9789;SDS011;4934;50.852;8.098;2023-03-20T17:31:21;7.45;;;2.58;;
9789;SDS011;4934;50.852;8.098;2023-03-20T17:33:46;9.07;;;3.15;;
9789;SDS011;4934;50.852;8.098;2023-03-20T17:38:44;6.32;;;2.85;;
9789;SDS011;4934;50.852;8.098;2023-03-20T17:41:17;7.25;;;2.40;;
9789;SDS011;4934;50.852;8.098;2023-03-20T17:43:44;5.35;;;2.42;;
9789;SDS011;4934;50.852;8.098;2023-03-20T17:48:43;5.97;;;2.05;;
9789;SDS011;4934;50.852;8.098;2023-03-20T17:51:09;7.55;;;2.20;;
9789;SDS011;4934;50.852;8.098;2023-03-20T17:53:35;4.80;;;2.45;;
9789;SDS011;4934;50.852;8.098;2023-03-20T17:56:00;4.82;;;2.05;;
9789;SDS011;4934;50.852;8.098;2023-03-20T17:58:26;5.32;;;1.80;;
9789;SDS011;4934;50.852;8.098;2023-03-20T18:00:52;6.78;;;1.85;;